createdAt,value
2023-01-30T00:00:10.924Z,100675.72
2023-01-30T00:02:37.390Z,100656.16
2023-01-30T00:05:04.438Z,100640.78
2023-01-30T00:07:30.886Z,100620.19
2023-01-30T00:09:57.300Z,100612.84
2023-01-30T00:12:23.711Z,100619.53
2023-01-30T00:14:51.475Z,100613.41
2023-01-30T00:17:17.886Z,100621.63
2023-01-30T00:19:44.276Z,100619.06
2023-01-30T00:22:10.689Z,100626.78
2023-01-30T00:24:37.323Z,100638.94
2023-01-30T00:27:03.868Z,100620.34
2023-01-30T00:29:30.265Z,100618.13
2023-01-30T00:31:58.079Z,100622.06
2023-01-30T00:34:24.530Z,100624.69
2023-01-30T00:37:02.531Z,100640.72
2023-01-30T00:39:33.760Z,100620.28
2023-01-30T00:42:00.161Z,100618.59
2023-01-30T00:44:26.595Z,100602.75
2023-01-30T00:46:53.073Z,100594.34
2023-01-30T00:49:20.831Z,100593.06
2023-01-30T00:51:47.378Z,100590.59
2023-01-30T00:54:13.797Z,100588.19
2023-01-30T00:56:40.214Z,100579.53
2023-01-30T00:59:06.656Z,100570.81
2023-01-30T01:01:33.511Z,100577.81
2023-01-30T01:03:59.933Z,100559.34
2023-01-30T01:06:27.651Z,100561.81
2023-01-30T01:08:54.264Z,100560.72
2023-01-30T01:11:20.791Z,100551.19
2023-01-30T01:13:47.197Z,100556.94
2023-01-30T01:16:13.620Z,100543.38
2023-01-30T01:18:40.084Z,100539.34
2023-01-30T01:21:06.538Z,100527.88
2023-01-30T01:23:34.293Z,100510.25
2023-01-30T01:26:01.526Z,100498.44
2023-01-30T01:28:27.978Z,100500.03
2023-01-30T01:30:54.435Z,100492.63
2023-01-30T01:33:20.898Z,100470.84
2023-01-30T01:35:47.370Z,100459.22
2023-01-30T01:38:13.994Z,100445.00
2023-01-30T01:40:45.754Z,100446.38
2023-01-30T01:43:16.829Z,100438.22
2023-01-30T01:45:45.139Z,100443.22
2023-01-30T01:48:18.844Z,100437.16
2023-01-30T01:50:49.724Z,100437.13
2023-01-30T01:53:21.361Z,100427.88
2023-01-30T01:55:52.262Z,100414.03
2023-01-30T01:58:23.909Z,100418.88
2023-01-30T02:00:50.955Z,100426.91
2023-01-30T02:03:21.429Z,100418.00
2023-01-30T02:05:51.411Z,100405.97
2023-01-30T02:08:22.479Z,100401.19
2023-01-30T02:10:56.493Z,100395.34
2023-01-30T02:13:23.578Z,100408.59
2023-01-30T02:15:51.296Z,100406.41
2023-01-30T02:18:18.381Z,100408.34
2023-01-30T02:21:10.779Z,100409.69
2023-01-30T02:24:03.389Z,100402.78
2023-01-30T02:26:52.631Z,100401.50
2023-01-30T02:29:54.469Z,100379.50
2023-01-30T02:32:34.057Z,100380.75
2023-01-30T02:35:06.958Z,100383.78
2023-01-30T02:37:48.364Z,100367.09
2023-01-30T02:40:28.275Z,100378.69
2023-01-30T02:43:05.929Z,100358.81
2023-01-30T02:45:36.134Z,100357.97
2023-01-30T02:48:06.560Z,100355.06
2023-01-30T02:50:37.087Z,100352.88
2023-01-30T02:53:05.349Z,100347.28
2023-01-30T02:55:32.099Z,100336.88
2023-01-30T02:57:58.533Z,100332.28
2023-01-30T03:00:37.486Z,100324.81
2023-01-30T03:03:32.354Z,100324.53
2023-01-30T03:06:13.047Z,100321.25
2023-01-30T03:08:48.458Z,100303.66
2023-01-30T03:11:15.241Z,100309.72
2023-01-30T03:13:50.387Z,100301.69
2023-01-30T03:16:20.988Z,100302.81
2023-01-30T03:18:49.524Z,100304.22
2023-01-30T03:21:16.631Z,100300.91
2023-01-30T03:23:44.540Z,100281.13
2023-01-30T03:26:16.859Z,100285.50
2023-01-30T03:28:44.927Z,100277.53
2023-01-30T03:31:11.497Z,100289.63
2023-01-30T03:33:37.984Z,100272.56
2023-01-30T03:36:06.353Z,100272.59
2023-01-30T03:38:33.904Z,100260.47
2023-01-30T03:41:00.575Z,100266.53
2023-01-30T03:43:26.989Z,100253.91
2023-01-30T03:45:53.419Z,100267.59
2023-01-30T03:48:20.020Z,100252.78
2023-01-30T03:50:46.418Z,100249.75
2023-01-30T03:53:14.182Z,100253.59
2023-01-30T03:55:40.611Z,100249.44
2023-01-30T03:58:07.151Z,100234.94
2023-01-30T04:00:33.573Z,100242.09
2023-01-30T04:03:00.016Z,100237.38
2023-01-30T04:05:26.465Z,100226.69
2023-01-30T04:07:56.499Z,100221.47
2023-01-30T04:10:24.600Z,100231.56
2023-01-30T04:12:51.018Z,100225.84
2023-01-30T04:15:17.751Z,100215.84
2023-01-30T04:17:44.464Z,100211.13
2023-01-30T04:20:11.477Z,100214.81
2023-01-30T04:22:37.862Z,100215.66
2023-01-30T04:25:04.836Z,100210.72
2023-01-30T04:27:32.569Z,100198.88
2023-01-30T04:29:58.969Z,100192.66
2023-01-30T04:32:26.187Z,100191.91
2023-01-30T04:34:52.611Z,100193.28
2023-01-30T04:37:19.008Z,100199.34
2023-01-30T04:39:45.431Z,100181.09
2023-01-30T04:42:11.848Z,100196.53
2023-01-30T04:44:39.568Z,100193.25
2023-01-30T04:47:06.014Z,100198.19
2023-01-30T04:49:32.530Z,100187.25
2023-01-30T04:51:58.926Z,100179.25
2023-01-30T04:54:25.523Z,100183.06
2023-01-30T04:56:51.962Z,100176.56
2023-01-30T04:59:18.435Z,100175.03
2023-01-30T05:01:46.330Z,100172.34
2023-01-30T05:04:12.979Z,100177.19
2023-01-30T05:06:39.369Z,100171.16
2023-01-30T05:09:06.043Z,100164.41
2023-01-30T05:11:32.749Z,100160.88
2023-01-30T05:13:59.302Z,100153.84
2023-01-30T05:16:26.647Z,100158.09
2023-01-30T05:18:54.376Z,100168.28
2023-01-30T05:21:22.634Z,100151.84
2023-01-30T05:23:50.717Z,100153.06
2023-01-30T05:26:17.198Z,100144.91
2023-01-30T05:28:43.755Z,100155.81
2023-01-30T05:31:12.672Z,100153.56
2023-01-30T05:33:40.110Z,100160.22
2023-01-30T05:36:13.478Z,100172.59
2023-01-30T05:38:39.886Z,100170.53
2023-01-30T05:41:08.066Z,100170.16
2023-01-30T05:43:35.387Z,100173.94
2023-01-30T05:46:05.729Z,100181.09
2023-01-30T05:48:33.355Z,100176.22
2023-01-30T05:51:00.275Z,100177.78
2023-01-30T05:53:30.087Z,100165.50
2023-01-30T05:55:57.123Z,100172.31
2023-01-30T05:58:24.157Z,100171.41
2023-01-30T06:00:51.457Z,100171.25
2023-01-30T06:03:17.977Z,100155.03
2023-01-30T06:05:44.486Z,100150.22
2023-01-30T06:08:11.037Z,100145.97
2023-01-30T06:10:38.804Z,100152.50
2023-01-30T06:13:05.246Z,100153.09
2023-01-30T06:15:32.494Z,100154.06
2023-01-30T06:17:58.868Z,100151.84
2023-01-30T06:20:25.329Z,100151.31
2023-01-30T06:22:51.707Z,100149.88
2023-01-30T06:25:18.355Z,100153.72
2023-01-30T06:27:47.127Z,100164.84
2023-01-30T06:30:14.109Z,100164.75
2023-01-30T06:32:40.539Z,100162.28
2023-01-30T06:35:07.973Z,100160.59
2023-01-30T06:37:34.367Z,100182.25
2023-01-30T06:40:00.782Z,100183.38
2023-01-30T06:42:27.228Z,100185.88
2023-01-30T06:44:54.962Z,100185.56
2023-01-30T06:47:21.413Z,100185.84
2023-01-30T06:49:47.812Z,100197.38
2023-01-30T06:52:14.223Z,100196.34
2023-01-30T06:54:40.600Z,100189.56
2023-01-30T06:57:07.128Z,100186.44
2023-01-30T06:59:33.551Z,100184.66
2023-01-30T07:02:01.318Z,100186.91
2023-01-30T07:04:27.881Z,100192.56
2023-01-30T07:06:54.316Z,100196.44
2023-01-30T07:09:20.731Z,100196.13
2023-01-30T07:11:47.162Z,100191.94
2023-01-30T07:14:13.559Z,100200.25
2023-01-30T07:16:39.983Z,100207.81
2023-01-30T07:19:07.954Z,100206.25
2023-01-30T07:21:34.349Z,100203.34
2023-01-30T07:24:00.754Z,100206.00
2023-01-30T07:26:27.199Z,100195.84
2023-01-30T07:28:53.620Z,100203.28
2023-01-30T07:31:20.073Z,100206.53
2023-01-30T07:33:46.555Z,100199.56
2023-01-30T07:36:14.327Z,100196.28
2023-01-30T07:38:40.734Z,100206.16
2023-01-30T07:41:07.160Z,100183.75
2023-01-30T07:43:33.563Z,100186.63
2023-01-30T07:46:00.632Z,100184.00
2023-01-30T07:48:27.100Z,100190.28
2023-01-30T07:50:55.991Z,100192.94
2023-01-30T07:53:24.019Z,100190.41
2023-01-30T07:56:12.541Z,100197.31
2023-01-30T07:58:38.933Z,100192.56
2023-01-30T08:01:05.739Z,100203.25
2023-01-30T08:03:32.254Z,100200.84
2023-01-30T08:05:59.086Z,100192.16
2023-01-30T08:08:26.857Z,100206.53
2023-01-30T08:10:53.312Z,100213.69
2023-01-30T08:13:19.698Z,100204.97
2023-01-30T08:15:46.111Z,100220.38
2023-01-30T08:18:12.588Z,100218.97
2023-01-30T08:20:39.070Z,100233.38
2023-01-30T08:23:05.841Z,100226.34
2023-01-30T08:25:33.919Z,100237.28
2023-01-30T08:28:00.301Z,100227.16
2023-01-30T08:30:26.903Z,100235.59
2023-01-30T08:32:53.354Z,100233.69
2023-01-30T08:35:20.228Z,100245.84
2023-01-30T08:37:46.631Z,100222.50
2023-01-30T08:40:14.053Z,100234.53
2023-01-30T08:42:43.879Z,100233.47
2023-01-30T08:45:11.552Z,100245.16
2023-01-30T08:47:38.068Z,100227.38
2023-01-30T08:50:05.627Z,100236.59
2023-01-30T08:52:32.095Z,100224.31
2023-01-30T08:54:58.519Z,100232.53
2023-01-30T08:57:24.912Z,100225.94
2023-01-30T08:59:52.751Z,100235.63
2023-01-30T09:02:19.315Z,100247.41
2023-01-30T09:04:45.761Z,100234.47
2023-01-30T09:07:12.204Z,100232.28
2023-01-30T09:09:38.636Z,100238.22
2023-01-30T09:12:05.349Z,100243.81
2023-01-30T09:14:31.743Z,100242.59
2023-01-30T09:16:59.784Z,100233.03
2023-01-30T09:19:27.802Z,100235.13
2023-01-30T09:21:55.040Z,100242.63
2023-01-30T09:24:22.535Z,100236.31
2023-01-30T09:26:48.998Z,100232.41
2023-01-30T09:29:15.498Z,100237.25
2023-01-30T09:31:42.005Z,100231.47
2023-01-30T09:34:09.772Z,100238.97
2023-01-30T09:36:36.197Z,100232.13
2023-01-30T09:39:02.605Z,100226.66
2023-01-30T09:41:48.841Z,100230.47
2023-01-30T09:44:34.761Z,100235.56
2023-01-30T09:47:09.371Z,100234.84
2023-01-30T09:49:50.353Z,100239.38
2023-01-30T09:52:27.319Z,100242.13
2023-01-30T09:55:00.420Z,100231.47
2023-01-30T09:57:27.019Z,100223.81
2023-01-30T09:59:57.496Z,100232.97
2023-01-30T10:02:36.950Z,100232.69
2023-01-30T10:05:05.714Z,100235.00
2023-01-30T10:07:45.301Z,100236.84
2023-01-30T10:10:20.928Z,100224.75
2023-01-30T10:12:57.885Z,100248.41
2023-01-30T10:15:39.810Z,100238.28
2023-01-30T10:18:43.071Z,100233.09
2023-01-30T10:21:24.524Z,100229.47
2023-01-30T10:24:06.156Z,100224.84
2023-01-30T10:26:33.450Z,100227.00
2023-01-30T10:29:07.757Z,100217.06
2023-01-30T10:31:41.533Z,100219.53
2023-01-30T10:34:12.120Z,100218.81
2023-01-30T10:36:45.903Z,100228.16
2023-01-30T10:39:20.157Z,100210.28
2023-01-30T10:41:55.203Z,100204.97
2023-01-30T10:44:24.181Z,100190.75
2023-01-30T10:47:17.394Z,100188.31
2023-01-30T10:49:46.495Z,100186.97
2023-01-30T10:52:24.827Z,100189.28
2023-01-30T10:55:00.903Z,100191.31
2023-01-30T10:57:36.734Z,100171.13
2023-01-30T11:00:08.921Z,100188.78
2023-01-30T11:02:43.086Z,100211.63
2023-01-30T11:05:16.063Z,100198.41
2023-01-30T11:07:46.969Z,100216.91
2023-01-30T11:10:16.968Z,100210.94
2023-01-30T11:12:43.385Z,100204.22
2023-01-30T11:15:11.052Z,100209.44
2023-01-30T11:17:40.611Z,100210.19
2023-01-30T11:20:14.174Z,100192.13
2023-01-30T11:22:48.400Z,100183.41
2023-01-30T11:25:18.455Z,100201.69
2023-01-30T11:27:52.923Z,100200.84
2023-01-30T11:30:21.573Z,100203.72
2023-01-30T11:32:49.669Z,100211.78
2023-01-30T11:35:28.044Z,100189.97
2023-01-30T11:38:11.434Z,100183.78
2023-01-30T11:40:39.138Z,100184.81
2023-01-30T11:43:12.156Z,100169.47
2023-01-30T11:45:41.751Z,100178.06
2023-01-30T11:48:34.040Z,100168.13
2023-01-30T11:51:06.129Z,100169.72
2023-01-30T11:53:38.545Z,100165.44
2023-01-30T11:56:10.567Z,100172.69
2023-01-30T11:58:40.658Z,100168.81
2023-01-30T12:01:10.261Z,100157.75
2023-01-30T12:03:44.842Z,100168.53
2023-01-30T12:06:11.442Z,100155.94
2023-01-30T12:08:42.969Z,100163.94
2023-01-30T12:11:26.175Z,100199.25
2023-01-30T12:13:55.062Z,100211.31
2023-01-30T12:16:24.068Z,100217.78
2023-01-30T12:18:59.124Z,100190.59
2023-01-30T12:21:34.662Z,100213.75
2023-01-30T12:24:22.001Z,100216.59
2023-01-30T12:26:55.052Z,100202.94
2023-01-30T12:29:27.837Z,100198.19
2023-01-30T12:32:05.309Z,100202.81
2023-01-30T12:34:31.985Z,100217.56
2023-01-30T12:37:14.651Z,100222.06
2023-01-30T12:39:58.771Z,100206.06
2023-01-30T12:42:31.648Z,100208.63
2023-01-30T12:45:14.073Z,100195.09
2023-01-30T12:47:57.386Z,100198.78
2023-01-30T12:50:32.464Z,100200.25
2023-01-30T12:53:20.712Z,100203.09
2023-01-30T12:55:56.026Z,100206.94
2023-01-30T12:58:27.559Z,100200.44
2023-01-30T13:01:15.755Z,100216.47
2023-01-30T13:03:48.419Z,100224.31
2023-01-30T13:06:31.815Z,100235.56
2023-01-30T13:09:13.661Z,100228.94
2023-01-30T13:11:54.947Z,100220.44
2023-01-30T13:14:28.769Z,100220.19
2023-01-30T13:17:04.669Z,100226.72
2023-01-30T13:19:41.155Z,100211.06
2023-01-30T13:22:15.590Z,100209.63
2023-01-30T13:24:51.334Z,100196.88
2023-01-30T13:27:22.150Z,100219.91
2023-01-30T13:29:49.937Z,100208.88
2023-01-30T13:32:21.570Z,100206.81
2023-01-30T13:34:48.775Z,100207.63
2023-01-30T13:37:18.702Z,100202.59
2023-01-30T13:39:48.962Z,100207.66
2023-01-30T13:42:27.722Z,100201.41
2023-01-30T13:44:55.968Z,100207.97
2023-01-30T13:47:32.356Z,100211.66
2023-01-30T13:50:16.675Z,100212.78
2023-01-30T13:52:49.683Z,100212.38
2023-01-30T13:55:28.552Z,100216.78
2023-01-30T13:58:04.161Z,100224.09
2023-01-30T14:00:32.615Z,100220.31
2023-01-30T14:03:23.275Z,100233.13
2023-01-30T14:06:12.720Z,100240.16
2023-01-30T14:08:48.598Z,100256.97
2023-01-30T14:11:35.373Z,100274.34
2023-01-30T14:14:06.611Z,100297.56
2023-01-30T14:16:41.408Z,100308.84
2023-01-30T14:19:31.332Z,100311.59
2023-01-30T14:21:59.537Z,100324.00
2023-01-30T14:24:27.277Z,100339.25
2023-01-30T14:27:04.911Z,100343.38
2023-01-30T14:30:00.337Z,100335.69
2023-01-30T14:32:54.981Z,100341.59
2023-01-30T14:35:26.531Z,100360.69
2023-01-30T14:38:18.473Z,100373.44
2023-01-30T14:41:09.547Z,100367.03
2023-01-30T14:43:46.138Z,100372.31
2023-01-30T14:46:54.365Z,100379.91
2023-01-30T14:49:27.321Z,100398.06
2023-01-30T14:51:54.263Z,100391.84
2023-01-30T14:54:33.327Z,100402.31
2023-01-30T14:57:19.111Z,100398.41
2023-01-30T15:00:03.240Z,100402.44
2023-01-30T15:02:42.735Z,100412.75
2023-01-30T15:05:13.948Z,100407.75
2023-01-30T15:07:44.087Z,100415.47
2023-01-30T15:10:41.019Z,100405.94
2023-01-30T15:13:36.183Z,100410.31
2023-01-30T15:16:14.675Z,100420.22
2023-01-30T15:18:55.614Z,100434.25
2023-01-30T15:21:43.495Z,100434.34
2023-01-30T15:24:45.538Z,100444.50
2023-01-30T15:27:20.637Z,100450.19
2023-01-30T15:30:12.630Z,100451.91
2023-01-30T15:32:39.031Z,100468.72
2023-01-30T15:35:23.169Z,100461.50
2023-01-30T15:37:50.532Z,100477.31
2023-01-30T15:40:23.768Z,100480.38
2023-01-30T15:42:55.888Z,100476.88
2023-01-30T15:45:32.821Z,100508.56
2023-01-30T15:48:14.599Z,100512.75
2023-01-30T15:50:48.302Z,100528.97
2023-01-30T15:53:15.467Z,100531.19
2023-01-30T15:55:43.999Z,100537.19
2023-01-30T15:58:13.594Z,100555.38
2023-01-30T16:00:45.672Z,100543.13
2023-01-30T16:03:16.932Z,100561.00
2023-01-30T16:05:48.620Z,100559.59
2023-01-30T16:08:20.933Z,100564.06
2023-01-30T16:10:47.390Z,100571.09
2023-01-30T16:13:13.843Z,100572.88
2023-01-30T16:15:45.842Z,100572.31
2023-01-30T16:18:24.005Z,100569.81
2023-01-30T16:23:52.513Z,100596.53
2023-01-30T16:26:19.859Z,100612.50
2023-01-30T16:28:46.248Z,100613.91
2023-01-30T16:31:13.233Z,100620.25
2023-01-30T16:33:39.781Z,100621.09
2023-01-30T16:36:30.645Z,100623.81
2023-01-30T16:38:57.127Z,100642.59
2023-01-30T16:41:30.192Z,100654.41
2023-01-30T16:44:17.030Z,100680.06
2023-01-30T16:46:50.407Z,100692.47
2023-01-30T16:49:21.160Z,100683.63
2023-01-30T16:51:49.786Z,100700.75
2023-01-30T16:54:21.014Z,100692.75
2023-01-30T16:56:52.745Z,100686.59
2023-01-30T16:59:21.303Z,100682.19
2023-01-30T17:01:48.910Z,100705.31
2023-01-30T17:04:19.532Z,100697.97
2023-01-30T17:06:55.422Z,100711.06
2023-01-30T17:09:37.180Z,100714.16
2023-01-30T17:12:37.379Z,100714.13
2023-01-30T17:15:26.717Z,100723.75
2023-01-30T17:17:53.176Z,100731.78
2023-01-30T17:20:19.602Z,100730.94
2023-01-30T17:22:50.524Z,100736.22
2023-01-30T17:25:21.893Z,100744.53
2023-01-30T17:27:48.480Z,100747.50
2023-01-30T17:30:16.605Z,100752.00
2023-01-30T17:32:43.198Z,100756.75
2023-01-30T17:35:11.790Z,100759.91
2023-01-30T17:37:38.438Z,100764.56
2023-01-30T17:40:15.843Z,100762.16
2023-01-30T17:42:42.343Z,100766.00
2023-01-30T17:45:09.656Z,100782.31
2023-01-30T17:47:36.795Z,100788.88
2023-01-30T17:50:03.559Z,100789.16
2023-01-30T17:52:29.992Z,100796.34
2023-01-30T17:54:56.423Z,100796.06
2023-01-30T17:57:24.211Z,100792.44
2023-01-30T17:59:50.628Z,100801.84
2023-01-30T18:02:17.045Z,100804.31
2023-01-30T18:04:43.426Z,100816.16
2023-01-30T18:07:15.795Z,100810.41
2023-01-30T18:09:42.746Z,100814.53
2023-01-30T18:12:09.160Z,100820.38
2023-01-30T18:14:36.928Z,100828.78
2023-01-30T18:17:03.465Z,100838.25
2023-01-30T18:19:29.911Z,100829.19
2023-01-30T18:21:56.286Z,100854.44
2023-01-30T18:24:22.707Z,100840.72
2023-01-30T18:26:49.143Z,100847.19
2023-01-30T18:29:15.675Z,100860.53
2023-01-30T18:31:43.571Z,100864.41
2023-01-30T18:34:10.837Z,100864.47
2023-01-30T18:36:37.553Z,100859.53
2023-01-30T18:39:05.331Z,100870.47
2023-01-30T18:41:32.206Z,100877.94
2023-01-30T18:44:00.969Z,100885.72
2023-01-30T18:46:28.910Z,100886.41
2023-01-30T18:48:57.003Z,100888.16
2023-01-30T18:51:25.336Z,100882.38
2023-01-30T18:53:53.691Z,100903.03
2023-01-30T18:56:22.043Z,100896.97
2023-01-30T18:58:48.808Z,100908.31
2023-01-30T19:01:17.464Z,100906.66
2023-01-30T19:03:44.381Z,100914.03
2023-01-30T19:06:13.838Z,100909.94
2023-01-30T19:08:40.710Z,100908.53
2023-01-30T19:11:09.034Z,100926.34
2023-01-30T19:13:36.643Z,100916.03
2023-01-30T19:16:03.969Z,100922.66
2023-01-30T19:18:31.561Z,100919.41
2023-01-30T19:20:59.473Z,100911.81
2023-01-30T19:23:27.777Z,100919.25
2023-01-30T19:25:55.324Z,100935.34
2023-01-30T19:28:21.883Z,100936.69
2023-01-30T19:30:48.777Z,100944.50
2023-01-30T19:33:15.589Z,100941.75
2023-01-30T19:35:42.178Z,100953.94
2023-01-30T19:38:08.621Z,100943.78
2023-01-30T19:40:40.327Z,100949.00
2023-01-30T19:43:10.804Z,100953.63
2023-01-30T19:45:38.157Z,100953.38
2023-01-30T19:48:05.382Z,100954.25
2023-01-30T19:50:31.821Z,100957.72
2023-01-30T19:52:58.544Z,100961.63
2023-01-30T19:55:24.989Z,100960.41
2023-01-30T19:57:52.777Z,100947.91
2023-01-30T20:00:20.531Z,100961.13
2023-01-30T20:02:47.248Z,100966.84
2023-01-30T20:05:13.691Z,100965.81
2023-01-30T20:07:40.111Z,100975.53
2023-01-30T20:10:06.981Z,100984.50
2023-01-30T20:12:33.405Z,100993.16
2023-01-30T20:15:01.722Z,100995.09
2023-01-30T20:17:28.194Z,100999.50
2023-01-30T20:19:54.649Z,101010.69
2023-01-30T20:22:21.077Z,101007.06
2023-01-30T20:24:47.499Z,101010.06
2023-01-30T20:27:13.965Z,101012.56
2023-01-30T20:29:40.503Z,101015.75
2023-01-30T20:32:08.262Z,101007.88
2023-01-30T20:34:34.702Z,101008.56
2023-01-30T20:37:01.183Z,101013.59
2023-01-30T20:39:27.781Z,101017.34
2023-01-30T20:41:54.202Z,101017.34
2023-01-30T20:44:20.625Z,101025.19
2023-01-30T20:46:47.409Z,101029.03
2023-01-30T20:49:17.063Z,101039.44
2023-01-30T20:51:43.620Z,101030.63
2023-01-30T20:54:12.069Z,101051.25
2023-01-30T20:56:40.408Z,101058.03
2023-01-30T20:59:07.581Z,101054.47
2023-01-30T21:01:35.022Z,101064.44
2023-01-30T21:04:06.125Z,101081.81
2023-01-30T21:06:42.976Z,101091.56
2023-01-30T21:09:13.655Z,101066.47
2023-01-30T21:11:40.333Z,101075.66
2023-01-30T21:14:07.352Z,101079.16
2023-01-30T21:16:35.455Z,101070.09
2023-01-30T21:19:04.212Z,101076.16
2023-01-30T21:21:35.201Z,101076.16
2023-01-30T21:24:04.508Z,101078.72
2023-01-30T21:26:33.678Z,101093.56
2023-01-30T21:29:00.716Z,101086.78
2023-01-30T21:31:29.033Z,101089.72
2023-01-30T21:33:56.600Z,101100.72
2023-01-30T21:36:23.444Z,101110.88
2023-01-30T21:38:51.591Z,101108.88
2023-01-30T21:41:19.820Z,101113.00
2023-01-30T21:43:47.285Z,101111.09
2023-01-30T21:46:14.691Z,101106.81
2023-01-30T21:48:41.163Z,101100.84
2023-01-30T21:51:11.828Z,101098.09
2023-01-30T21:53:38.770Z,101099.63
2023-01-30T21:56:07.595Z,101101.94
2023-01-30T21:58:34.085Z,101113.25
2023-01-30T22:01:05.583Z,101120.81
2023-01-30T22:03:32.189Z,101124.72
2023-01-30T22:05:58.610Z,101129.56
2023-01-30T22:08:25.053Z,101130.44
2023-01-30T22:10:51.461Z,101132.59
2023-01-30T22:13:19.205Z,101135.09
2023-01-30T22:15:45.630Z,101118.69
2023-01-30T22:18:12.048Z,101107.09
2023-01-30T22:20:38.607Z,101113.88
2023-01-30T22:23:05.055Z,101117.09
2023-01-30T22:25:31.434Z,101118.66
2023-01-30T22:27:57.835Z,101121.69
2023-01-30T22:30:25.622Z,101114.19
2023-01-30T22:32:53.348Z,101125.63
2023-01-30T22:35:20.179Z,101129.44
2023-01-30T22:37:46.860Z,101123.44
2023-01-30T22:40:13.510Z,101131.19
2023-01-30T22:42:39.917Z,101133.41
2023-01-30T22:45:07.847Z,101127.53
2023-01-30T22:47:36.052Z,101134.81
2023-01-30T22:50:02.495Z,101141.94
2023-01-30T22:52:28.932Z,101133.16
2023-01-30T22:54:55.345Z,101145.38
2023-01-30T22:57:21.768Z,101145.41
2023-01-30T22:59:48.184Z,101151.91
2023-01-30T23:02:14.668Z,101145.13
2023-01-30T23:04:42.437Z,101156.88
2023-01-30T23:07:08.891Z,101155.91
2023-01-30T23:09:35.667Z,101156.84
2023-01-30T23:12:02.077Z,101161.31
2023-01-30T23:14:28.492Z,101163.56
2023-01-30T23:16:54.926Z,101166.72
2023-01-30T23:19:21.361Z,101155.59
2023-01-30T23:21:49.234Z,101161.72
2023-01-30T23:24:17.979Z,101166.56
2023-01-30T23:26:46.098Z,101163.38
2023-01-30T23:29:15.769Z,101157.63
2023-01-30T23:31:44.338Z,101161.88
2023-01-30T23:34:13.074Z,101158.09
2023-01-30T23:36:40.078Z,101156.88
2023-01-30T23:39:08.155Z,101162.44
2023-01-30T23:41:36.572Z,101147.03
2023-01-30T23:44:04.124Z,101149.91
2023-01-30T23:46:32.479Z,101154.94
2023-01-30T23:49:01.000Z,101150.44
2023-01-30T23:51:29.694Z,101153.88
2023-01-30T23:53:57.171Z,101164.31
2023-01-30T23:56:26.894Z,101161.25
2023-01-30T23:58:53.782Z,101160.69
